createdAt,value
2016-11-27T00:00:48.127Z,37.02
2016-11-27T00:01:56.807Z,37.02
2016-11-27T00:03:06.711Z,37.04
2016-11-27T00:04:15.391Z,36.85
2016-11-27T00:05:24.080Z,37.14
2016-11-27T00:06:33.057Z,36.93
2016-11-27T00:07:41.734Z,37.14
2016-11-27T00:08:50.513Z,37.14
2016-11-27T00:09:59.193Z,37.14
2016-11-27T00:11:07.872Z,37.14
2016-11-27T00:12:17.169Z,37.14
2016-11-27T00:13:26.153Z,37.14
2016-11-27T00:14:35.494Z,37.24
2016-11-27T00:15:44.480Z,37.14
2016-11-27T00:16:54.103Z,37.14
2016-11-27T00:18:03.464Z,37.24
2016-11-27T00:19:12.803Z,37.12
2016-11-27T00:20:22.087Z,37.14
2016-11-27T00:21:31.078Z,37.24
2016-11-27T00:22:40.710Z,37.14
2016-11-27T00:23:49.716Z,37.24
2016-11-27T00:24:58.694Z,37.24
2016-11-27T00:26:07.993Z,37.24
2016-11-27T00:27:16.979Z,37.14
2016-11-27T00:28:25.666Z,37.24
2016-11-27T00:29:35.275Z,37.24
2016-11-27T00:30:44.265Z,37.24
2016-11-27T00:31:53.266Z,37.43
2016-11-27T00:33:02.559Z,37.34
2016-11-27T00:34:11.860Z,37.34
2016-11-27T00:35:21.167Z,37.34
2016-11-27T00:36:29.875Z,37.34
2016-11-27T00:37:39.184Z,37.24
2016-11-27T00:38:48.483Z,37.52
2016-11-27T00:39:57.174Z,37.43
2016-11-27T00:41:05.865Z,37.52
2016-11-27T00:42:14.848Z,37.43
2016-11-27T00:43:24.136Z,37.43
2016-11-27T00:44:33.433Z,37.43
2016-11-27T00:45:42.737Z,37.52
2016-11-27T00:46:51.416Z,37.52
2016-11-27T00:48:00.421Z,37.43
2016-11-27T00:49:09.561Z,37.52
2016-11-27T00:50:18.550Z,37.52
2016-11-27T00:51:27.874Z,37.62
2016-11-27T00:52:36.871Z,37.43
2016-11-27T00:53:45.874Z,37.52
2016-11-27T00:54:55.203Z,37.62
2016-11-27T00:56:04.202Z,37.72
2016-11-27T00:57:12.881Z,37.62
2016-11-27T00:58:22.167Z,37.62
2016-11-27T00:59:30.852Z,37.52
2016-11-27T01:00:39.664Z,37.43
2016-11-27T01:01:48.370Z,37.43
2016-11-27T01:02:57.406Z,37.52
2016-11-27T01:04:06.418Z,37.72
2016-11-27T01:05:15.721Z,37.72
2016-11-27T01:06:25.325Z,37.72
2016-11-27T01:07:34.031Z,37.62
2016-11-27T01:08:43.038Z,37.62
2016-11-27T01:09:52.356Z,37.81
2016-11-27T01:11:01.397Z,37.81
2016-11-27T01:12:10.412Z,37.62
2016-11-27T01:13:19.717Z,37.72
2016-11-27T01:14:28.715Z,37.72
2016-11-27T01:15:37.398Z,37.72
2016-11-27T01:16:46.445Z,37.72
2016-11-27T01:17:55.463Z,37.43
2016-11-27T01:19:04.455Z,37.72
2016-11-27T01:20:13.133Z,37.81
2016-11-27T01:21:21.827Z,37.62
2016-11-27T01:22:30.819Z,37.72
2016-11-27T01:23:39.967Z,37.91
2016-11-27T01:24:48.984Z,37.91
2016-11-27T01:25:57.988Z,37.81
2016-11-27T01:27:07.319Z,37.43
2016-11-27T01:28:16.315Z,37.62
2016-11-27T01:29:25.300Z,37.62
2016-11-27T01:30:34.294Z,37.62
2016-11-27T01:31:42.990Z,37.52
2016-11-27T01:32:52.302Z,37.62
2016-11-27T01:34:01.595Z,37.81
2016-11-27T01:35:10.286Z,37.81
2016-11-27T01:36:18.970Z,37.62
2016-11-27T01:37:27.661Z,37.72
2016-11-27T01:38:37.021Z,37.72
2016-11-27T01:39:46.044Z,37.72
2016-11-27T01:40:55.066Z,37.62
2016-11-27T01:42:04.062Z,37.81
2016-11-27T01:43:13.378Z,37.72
2016-11-27T01:44:22.068Z,37.72
2016-11-27T01:45:31.400Z,37.72
2016-11-27T01:46:40.459Z,37.81
2016-11-27T01:47:49.272Z,37.81
2016-11-27T01:48:58.260Z,37.72
2016-11-27T01:50:07.640Z,37.81
2016-11-27T01:51:17.322Z,37.81
2016-11-27T01:52:27.326Z,37.62
2016-11-27T01:53:36.707Z,37.81
2016-11-27T01:54:45.408Z,37.62
2016-11-27T01:55:54.395Z,37.72
2016-11-27T01:57:03.684Z,37.72
2016-11-27T01:58:12.368Z,37.62
2016-11-27T01:59:21.652Z,37.62
2016-11-27T02:00:30.402Z,37.62
2016-11-27T02:01:39.321Z,37.72
2016-11-27T02:02:48.926Z,37.62
2016-11-27T02:03:58.039Z,37.62
2016-11-27T02:05:07.812Z,37.62
2016-11-27T02:06:17.184Z,37.72
2016-11-27T02:07:25.879Z,37.72
2016-11-27T02:08:35.134Z,37.62
2016-11-27T02:09:45.562Z,37.72
2016-11-27T02:10:54.245Z,37.72
2016-11-27T02:12:03.291Z,37.72
2016-11-27T02:13:12.596Z,37.62
2016-11-27T02:14:22.229Z,37.62
2016-11-27T02:15:31.131Z,37.62
2016-11-27T02:16:39.823Z,37.62
2016-11-27T02:17:48.814Z,37.62
2016-11-27T02:18:57.828Z,37.81
2016-11-27T02:20:07.608Z,37.72
2016-11-27T02:21:17.242Z,37.72
2016-11-27T02:22:26.584Z,37.72
2016-11-27T02:23:36.487Z,37.72
2016-11-27T02:24:45.481Z,37.62
2016-11-27T02:25:54.789Z,37.72
2016-11-27T02:27:03.808Z,37.62
2016-11-27T02:28:12.803Z,37.72
2016-11-27T02:29:22.095Z,37.72
2016-11-27T02:30:31.078Z,37.72
2016-11-27T02:31:40.094Z,37.62
2016-11-27T02:32:49.119Z,37.81
2016-11-27T02:33:58.716Z,37.72
2016-11-27T02:35:07.415Z,37.72
2016-11-27T02:36:16.128Z,37.72
2016-11-27T02:37:25.146Z,37.72
2016-11-27T02:38:33.828Z,37.62
2016-11-27T02:39:42.845Z,37.62
2016-11-27T02:40:51.895Z,37.62
2016-11-27T02:42:00.921Z,37.62
2016-11-27T02:43:10.236Z,37.62
2016-11-27T02:44:18.924Z,37.62
2016-11-27T02:45:28.519Z,37.72
2016-11-27T02:46:37.531Z,37.72
2016-11-27T02:47:46.560Z,37.62
2016-11-27T02:48:55.541Z,37.62
2016-11-27T02:50:04.253Z,37.62
2016-11-27T02:51:12.930Z,37.62
2016-11-27T02:52:21.612Z,37.72
2016-11-27T02:53:30.915Z,37.62
2016-11-27T02:54:40.527Z,37.72
2016-11-27T02:55:49.850Z,37.72
2016-11-27T02:56:58.853Z,37.72
2016-11-27T02:58:07.547Z,37.72
2016-11-27T02:59:16.241Z,37.62
2016-11-27T03:00:25.237Z,37.62
2016-11-27T03:01:34.846Z,37.43
2016-11-27T03:02:43.581Z,37.91
2016-11-27T03:03:52.282Z,37.81
2016-11-27T03:05:01.294Z,37.62
2016-11-27T03:06:10.613Z,37.81
2016-11-27T03:07:19.675Z,37.62
2016-11-27T03:08:28.382Z,37.81
2016-11-27T03:09:37.423Z,37.81
2016-11-27T03:10:46.722Z,37.81
2016-11-27T03:11:55.467Z,37.72
2016-11-27T03:13:04.474Z,37.81
2016-11-27T03:14:13.472Z,37.81
2016-11-27T03:15:22.143Z,37.81
2016-11-27T03:16:31.142Z,37.72
2016-11-27T03:17:39.943Z,37.81
2016-11-27T03:18:48.623Z,37.72
2016-11-27T03:19:57.925Z,37.81
2016-11-27T03:21:07.539Z,37.81
2016-11-27T03:22:16.233Z,37.72
2016-11-27T03:23:25.539Z,37.72
2016-11-27T03:24:34.826Z,37.72
2016-11-27T03:25:43.817Z,37.72
2016-11-27T03:26:52.824Z,37.62
2016-11-27T03:28:01.808Z,37.72
2016-11-27T03:29:10.858Z,37.81
2016-11-27T03:30:19.881Z,37.52
2016-11-27T03:31:28.587Z,37.62
2016-11-27T03:32:37.573Z,37.72
2016-11-27T03:33:46.598Z,37.72
2016-11-27T03:34:56.266Z,37.72
2016-11-27T03:36:05.267Z,37.72
2016-11-27T03:37:14.265Z,37.72
2016-11-27T03:38:23.870Z,37.81
2016-11-27T03:39:32.584Z,37.52
2016-11-27T03:40:41.472Z,37.72
2016-11-27T03:41:50.498Z,37.72
2016-11-27T03:42:59.820Z,37.62
2016-11-27T03:44:09.122Z,37.62
2016-11-27T03:45:18.437Z,37.62
2016-11-27T03:46:27.787Z,37.81
2016-11-27T03:47:36.790Z,37.72
2016-11-27T03:48:45.797Z,37.81
2016-11-27T03:49:54.497Z,37.81
2016-11-27T03:51:03.181Z,37.62
2016-11-27T03:52:12.195Z,37.81
2016-11-27T03:53:21.839Z,37.62
2016-11-27T03:54:31.370Z,37.72
2016-11-27T03:55:40.063Z,37.72
2016-11-27T03:56:49.364Z,37.81
2016-11-27T03:57:59.281Z,37.62
2016-11-27T03:59:08.279Z,37.72
2016-11-27T04:00:17.272Z,37.72
2016-11-27T04:01:26.297Z,37.62
2016-11-27T04:02:35.308Z,37.72
2016-11-27T04:03:44.895Z,37.43
2016-11-27T04:04:53.904Z,37.62
2016-11-27T04:06:03.819Z,37.43
2016-11-27T04:07:12.811Z,37.52
2016-11-27T04:08:21.800Z,37.52
2016-11-27T04:09:30.589Z,37.43
2016-11-27T04:10:39.293Z,37.43
2016-11-27T04:11:48.366Z,37.43
2016-11-27T04:12:57.391Z,37.62
2016-11-27T04:14:06.386Z,37.43
2016-11-27T04:15:15.377Z,37.62
2016-11-27T04:16:25.302Z,37.43
2016-11-27T04:17:34.948Z,37.52
2016-11-27T04:18:43.633Z,37.52
2016-11-27T04:19:52.311Z,37.52
2016-11-27T04:21:01.151Z,37.52
2016-11-27T04:22:10.156Z,37.52
2016-11-27T04:23:19.460Z,37.43
2016-11-27T04:24:28.440Z,37.52
2016-11-27T04:25:37.762Z,37.62
2016-11-27T04:26:47.236Z,37.62
2016-11-27T04:27:56.531Z,37.52
2016-11-27T04:29:05.519Z,37.52
2016-11-27T04:30:14.828Z,37.52
2016-11-27T04:31:23.817Z,37.62
2016-11-27T04:32:33.120Z,37.52
2016-11-27T04:33:42.114Z,37.43
2016-11-27T04:34:51.433Z,37.52
2016-11-27T04:36:00.110Z,37.52
2016-11-27T04:37:09.111Z,37.43
2016-11-27T04:38:18.109Z,37.52
2016-11-27T04:39:27.420Z,37.43
2016-11-27T04:40:36.736Z,37.52
2016-11-27T04:41:46.032Z,37.52
2016-11-27T04:42:54.748Z,37.52
2016-11-27T04:44:04.036Z,37.52
2016-11-27T04:45:13.023Z,37.52
2016-11-27T04:46:21.707Z,37.52
2016-11-27T04:47:31.055Z,37.52
2016-11-27T04:48:39.758Z,37.43
2016-11-27T04:49:48.740Z,37.52
2016-11-27T04:50:58.346Z,37.62
2016-11-27T04:52:07.339Z,37.52
2016-11-27T04:53:16.029Z,37.52
2016-11-27T04:54:24.712Z,37.62
2016-11-27T04:55:33.850Z,37.62
2016-11-27T04:56:43.445Z,37.62
2016-11-27T04:57:52.135Z,37.43
2016-11-27T04:59:01.121Z,37.62
2016-11-27T05:00:10.103Z,37.52
2016-11-27T05:01:18.825Z,37.43
2016-11-27T05:02:27.810Z,37.62
2016-11-27T05:03:36.805Z,37.62
2016-11-27T05:04:45.805Z,37.62
2016-11-27T05:05:54.796Z,37.43
2016-11-27T05:07:04.098Z,37.34
2016-11-27T05:08:13.085Z,37.52
2016-11-27T05:09:22.697Z,37.52
2016-11-27T05:10:31.692Z,37.52
2016-11-27T05:11:40.411Z,37.52
2016-11-27T05:12:50.015Z,37.43
2016-11-27T05:13:58.698Z,37.51
2016-11-27T05:15:07.384Z,37.43
2016-11-27T05:16:16.369Z,37.62
2016-11-27T05:17:25.661Z,37.43
2016-11-27T05:18:34.350Z,37.43
2016-11-27T05:19:43.044Z,37.43
2016-11-27T05:20:51.761Z,37.52
2016-11-27T05:22:00.750Z,37.51
2016-11-27T05:23:10.049Z,37.52
2016-11-27T05:24:19.354Z,37.52
2016-11-27T05:25:28.336Z,37.51
2016-11-27T05:26:37.338Z,37.52
2016-11-27T05:27:46.021Z,37.34
2016-11-27T05:28:55.946Z,37.41
2016-11-27T05:30:05.252Z,37.52
2016-11-27T05:31:14.243Z,37.32
2016-11-27T05:32:23.874Z,37.52
2016-11-27T05:33:32.859Z,37.43
2016-11-27T05:34:42.486Z,37.52
2016-11-27T05:35:52.079Z,37.51
2016-11-27T05:37:00.764Z,37.43
2016-11-27T05:38:10.059Z,37.32
2016-11-27T05:39:19.397Z,37.34
2016-11-27T05:40:28.697Z,37.43
2016-11-27T05:41:37.679Z,37.52
2016-11-27T05:42:47.277Z,37.43
2016-11-27T05:43:56.264Z,37.41
2016-11-27T05:45:05.894Z,37.24
2016-11-27T05:46:14.904Z,37.32
2016-11-27T05:47:24.597Z,37.43
2016-11-27T05:48:33.921Z,37.34
2016-11-27T05:49:43.531Z,37.34
2016-11-27T05:50:52.222Z,37.43
2016-11-27T05:52:01.522Z,37.34
2016-11-27T05:53:10.565Z,37.43
2016-11-27T05:54:19.268Z,37.24
2016-11-27T05:55:27.961Z,37.24
2016-11-27T05:56:36.656Z,37.22
2016-11-27T05:57:45.331Z,37.14
2016-11-27T05:58:54.014Z,37.34
2016-11-27T06:00:03.641Z,37.24
2016-11-27T06:01:12.627Z,37.12
2016-11-27T06:02:21.328Z,37.34
2016-11-27T06:03:30.621Z,37.24
2016-11-27T06:04:40.525Z,37.14
2016-11-27T06:05:49.509Z,37.22
2016-11-27T06:06:58.493Z,37.14
2016-11-27T06:08:07.501Z,37.24
2016-11-27T06:09:16.505Z,37.22
2016-11-27T06:10:25.793Z,37.22
2016-11-27T06:11:34.497Z,37.24
2016-11-27T06:12:43.497Z,37.14
2016-11-27T06:13:52.189Z,37.22
2016-11-27T06:15:01.183Z,37.34
2016-11-27T06:16:10.509Z,37.22
2016-11-27T06:17:19.524Z,37.02
2016-11-27T06:18:28.209Z,37.12
2016-11-27T06:19:37.199Z,37.22
2016-11-27T06:20:46.196Z,37.14
2016-11-27T06:21:55.187Z,37.14
2016-11-27T06:23:04.183Z,37.14
2016-11-27T06:24:13.200Z,37.04
2016-11-27T06:25:21.913Z,37.14
2016-11-27T06:26:30.913Z,37.14
2016-11-27T06:27:39.942Z,37.12
2016-11-27T06:28:48.986Z,37.14
2016-11-27T06:29:57.980Z,37.14
2016-11-27T06:31:06.677Z,37.22
2016-11-27T06:32:15.662Z,37.14
2016-11-27T06:33:24.952Z,37.14
2016-11-27T06:34:33.669Z,37.14
2016-11-27T06:35:42.973Z,37.24
2016-11-27T06:36:51.651Z,37.12
2016-11-27T06:38:00.669Z,37.22
2016-11-27T06:39:09.712Z,37.22
2016-11-27T06:40:18.433Z,37.14
2016-11-27T06:41:27.725Z,37.12
2016-11-27T06:42:37.324Z,37.14
2016-11-27T06:43:46.940Z,37.12
2016-11-27T06:44:56.540Z,37.14
2016-11-27T06:46:05.832Z,37.14
2016-11-27T06:47:14.515Z,37.02
2016-11-27T06:48:23.202Z,36.93
2016-11-27T06:49:32.500Z,37.34
2016-11-27T06:50:41.494Z,36.95
2016-11-27T06:51:50.786Z,36.85
2016-11-27T06:53:00.088Z,37.02
2016-11-27T06:54:09.106Z,37.04
2016-11-27T06:55:18.451Z,37.02
2016-11-27T06:56:27.601Z,37.12
2016-11-27T06:57:36.633Z,36.93
2016-11-27T06:58:45.624Z,36.74
2016-11-27T06:59:55.248Z,37.12
2016-11-27T07:01:04.565Z,37.12
2016-11-27T07:02:13.561Z,36.83
2016-11-27T07:03:22.547Z,36.85
2016-11-27T07:04:31.530Z,36.74
2016-11-27T07:05:40.845Z,36.85
2016-11-27T07:06:49.833Z,36.74
2016-11-27T07:07:59.224Z,37.02
2016-11-27T07:09:08.512Z,36.85
2016-11-27T07:10:17.226Z,36.93
2016-11-27T07:11:26.526Z,36.74
2016-11-27T07:12:35.215Z,36.93
2016-11-27T07:13:44.200Z,36.83
2016-11-27T07:14:53.204Z,37.12
2016-11-27T07:16:02.194Z,37.02
2016-11-27T07:17:10.880Z,37.02
2016-11-27T07:18:19.568Z,37.14
2016-11-27T07:19:28.717Z,36.95
2016-11-27T07:20:37.399Z,37.22
2016-11-27T07:21:46.383Z,37.02
2016-11-27T07:22:55.085Z,37.24
2016-11-27T07:24:04.090Z,37.12
2016-11-27T07:25:13.078Z,37.12
2016-11-27T07:26:22.389Z,37.02
2016-11-27T07:27:31.391Z,36.93
2016-11-27T07:28:40.106Z,37.22
2016-11-27T07:29:49.095Z,36.95
2016-11-27T07:30:58.382Z,37.12
2016-11-27T07:32:07.079Z,37.12
2016-11-27T07:33:16.685Z,37.02
2016-11-27T07:34:26.047Z,36.85
2016-11-27T07:35:35.664Z,37.02
2016-11-27T07:36:44.669Z,37.14
2016-11-27T07:37:53.363Z,36.85
2016-11-27T07:39:02.686Z,36.93
2016-11-27T07:40:11.679Z,36.85
2016-11-27T07:41:21.300Z,36.93
2016-11-27T07:42:30.959Z,36.93
2016-11-27T07:43:39.948Z,36.76
2016-11-27T07:44:48.638Z,36.83
2016-11-27T07:45:57.321Z,36.93
2016-11-27T07:47:06.323Z,36.95
2016-11-27T07:48:15.941Z,36.95
2016-11-27T07:49:25.233Z,36.54
2016-11-27T07:50:34.228Z,36.56
2016-11-27T07:51:43.535Z,36.76
2016-11-27T07:52:52.525Z,36.66
2016-11-27T07:54:01.824Z,36.27
2016-11-27T07:55:10.878Z,35.99
2016-11-27T07:56:19.873Z,36.08
2016-11-27T07:57:28.859Z,35.89
2016-11-27T07:58:37.853Z,35.7
2016-11-27T07:59:46.845Z,35.81
2016-11-27T08:00:55.837Z,35.52
2016-11-27T08:02:05.447Z,35.33
2016-11-27T08:03:14.143Z,35.42
2016-11-27T08:04:23.138Z,35.14
2016-11-27T08:05:32.144Z,35.14
2016-11-27T08:06:41.749Z,35.04
2016-11-27T08:07:51.045Z,35.06
2016-11-27T08:09:00.379Z,34.96
2016-11-27T08:10:09.375Z,35.06
2016-11-27T08:11:18.683Z,35.06
2016-11-27T08:12:27.671Z,35.06
2016-11-27T08:13:36.999Z,34.77
2016-11-27T08:14:46.308Z,34.77
2016-11-27T08:15:55.965Z,34.58
2016-11-27T08:17:05.260Z,34.58
2016-11-27T08:18:13.968Z,34.48
2016-11-27T08:19:22.668Z,34.21
2016-11-27T08:20:31.672Z,34.4
2016-11-27T08:21:41.581Z,34.5
2016-11-27T08:22:51.525Z,34.3
2016-11-27T08:24:00.207Z,34.3
2016-11-27T08:25:09.511Z,34.5
2016-11-27T08:26:18.484Z,34.01
2016-11-27T08:27:27.175Z,34.01
2016-11-27T08:28:36.481Z,34.21
2016-11-27T08:29:45.174Z,34.11
2016-11-27T08:30:54.169Z,34.21
2016-11-27T08:32:03.168Z,34.21
2016-11-27T08:33:12.159Z,34.22
2016-11-27T08:34:21.754Z,34.32
2016-11-27T08:35:31.363Z,34.42
2016-11-27T08:36:40.095Z,34.42
2016-11-27T08:37:48.772Z,33.94
2016-11-27T08:38:57.479Z,34.03
2016-11-27T08:40:06.928Z,34.13
2016-11-27T08:41:16.231Z,34.03
2016-11-27T08:42:25.219Z,34.03
2016-11-27T08:43:34.212Z,34.03
2016-11-27T08:44:43.214Z,34.13
2016-11-27T08:45:52.348Z,33.94
2016-11-27T08:47:01.655Z,34.03
2016-11-27T08:48:10.347Z,33.84
2016-11-27T08:49:19.344Z,33.84
2016-11-27T08:50:28.363Z,33.66
2016-11-27T08:51:37.985Z,33.66
2016-11-27T08:52:47.281Z,33.66
2016-11-27T08:53:56.280Z,33.57
2016-11-27T08:55:04.971Z,33.28
2016-11-27T08:56:13.962Z,33.47
2016-11-27T08:57:22.659Z,33.37
2016-11-27T08:58:31.356Z,33.57
2016-11-27T08:59:40.374Z,33.57
2016-11-27T09:00:49.387Z,33.57
2016-11-27T09:01:58.391Z,33.29
2016-11-27T09:03:07.384Z,33.28
2016-11-27T09:04:16.079Z,33.28
2016-11-27T09:05:25.388Z,33.37
2016-11-27T09:06:34.381Z,33.28
2016-11-27T09:07:43.377Z,33.29
2016-11-27T09:08:52.672Z,33.29
2016-11-27T09:10:01.355Z,33.39
2016-11-27T09:11:10.361Z,33.29
2016-11-27T09:12:19.367Z,33.78
2016-11-27T09:13:28.364Z,33.68
2016-11-27T09:14:37.664Z,33.78
2016-11-27T09:15:46.375Z,33.58
2016-11-27T09:16:55.366Z,33.48
2016-11-27T09:18:04.371Z,33.58
2016-11-27T09:19:13.374Z,33.78
2016-11-27T09:20:22.521Z,33.68
2016-11-27T09:21:31.524Z,33.68
2016-11-27T09:22:40.205Z,33.78
2016-11-27T09:23:49.838Z,33.29
2016-11-27T09:24:58.842Z,33.29
2016-11-27T09:26:07.886Z,33.58
2016-11-27T09:27:17.180Z,33.48
2016-11-27T09:28:26.196Z,33.48
2016-11-27T09:29:34.880Z,33.48
2016-11-27T09:30:43.570Z,33.39
2016-11-27T09:31:52.858Z,33.39
2016-11-27T09:33:02.471Z,33.39
2016-11-27T09:34:11.781Z,33.39
2016-11-27T09:35:20.478Z,33.29
2016-11-27T09:36:29.159Z,33.39
2016-11-27T09:37:38.763Z,33.29
2016-11-27T09:38:47.761Z,33.29
2016-11-27T09:39:56.763Z,33.29
2016-11-27T09:41:05.459Z,33.29
2016-11-27T09:42:14.141Z,33.29
2016-11-27T09:43:23.140Z,33.29
2016-11-27T09:44:32.460Z,33.48
2016-11-27T09:45:42.100Z,33.39
2016-11-27T09:46:51.115Z,33.48
2016-11-27T09:48:00.118Z,33.48
2016-11-27T09:49:09.168Z,33.39
2016-11-27T09:50:18.172Z,33.31
2016-11-27T09:51:27.497Z,33.2
2016-11-27T09:52:36.505Z,33.12
2016-11-27T09:53:45.496Z,33.31
2016-11-27T09:54:54.483Z,33.31
2016-11-27T09:56:03.163Z,33.4
2016-11-27T09:57:12.156Z,33.4
2016-11-27T09:58:20.845Z,33.22
2016-11-27T09:59:30.156Z,33.12
2016-11-27T10:00:40.227Z,33.31
2016-11-27T10:01:49.835Z,33.22
2016-11-27T10:02:59.127Z,33.02
2016-11-27T10:04:07.839Z,33.12
2016-11-27T10:05:17.472Z,33.04
2016-11-27T10:06:27.187Z,32.75
2016-11-27T10:07:36.488Z,32.94
2016-11-27T10:08:45.805Z,32.94
2016-11-27T10:09:54.489Z,33.04
2016-11-27T10:11:03.483Z,32.65
2016-11-27T10:12:12.172Z,32.65
2016-11-27T10:13:21.166Z,32.46
2016-11-27T10:14:30.772Z,32.38
2016-11-27T10:15:40.380Z,32.18
2016-11-27T10:16:49.096Z,32.28
2016-11-27T10:17:58.407Z,32.18
2016-11-27T10:19:07.412Z,32.09
2016-11-27T10:20:16.411Z,32.18
2016-11-27T10:21:25.408Z,32.09
2016-11-27T10:22:34.713Z,32.09
2016-11-27T10:23:43.705Z,32.1
2016-11-27T10:24:52.708Z,32.1
2016-11-27T10:26:01.705Z,32.28
2016-11-27T10:27:10.719Z,32.39
2016-11-27T10:28:19.418Z,32.39
2016-11-27T10:29:28.165Z,32.2
2016-11-27T10:30:37.187Z,32.2
2016-11-27T10:31:46.193Z,32.2
2016-11-27T10:32:55.197Z,32.39
2016-11-27T10:34:04.195Z,32.2
2016-11-27T10:35:13.960Z,32.01
2016-11-27T10:36:22.668Z,32.01
2016-11-27T10:37:31.969Z,32.1
2016-11-27T10:38:40.984Z,31.93
2016-11-27T10:39:49.988Z,32.02
2016-11-27T10:40:58.977Z,32.02
2016-11-27T10:42:07.975Z,31.83
2016-11-27T10:43:16.978Z,31.93
2016-11-27T10:44:26.300Z,31.83
2016-11-27T10:45:35.298Z,31.93
2016-11-27T10:46:44.591Z,31.93
2016-11-27T10:47:53.593Z,31.93
2016-11-27T10:49:02.625Z,32.02
2016-11-27T10:50:11.312Z,33.09
2016-11-27T10:51:20.004Z,34.02
2016-11-27T10:52:29.322Z,35.14
2016-11-27T10:53:38.330Z,35.8
2016-11-27T10:54:47.033Z,36.36
2016-11-27T10:55:56.636Z,36.75
2016-11-27T10:57:05.335Z,36.93
2016-11-27T10:58:14.326Z,37.21
2016-11-27T10:59:23.013Z,37.6
2016-11-27T11:00:31.705Z,37.68
2016-11-27T11:01:40.720Z,37.68
2016-11-27T11:02:49.425Z,38.43
2016-11-27T11:03:58.752Z,38.43
2016-11-27T11:05:08.052Z,39.28
2016-11-27T11:06:17.354Z,39.47
2016-11-27T11:07:26.357Z,39.06
2016-11-27T11:08:35.041Z,39.64
2016-11-27T11:09:44.026Z,39.74
2016-11-27T11:10:52.710Z,40.41
2016-11-27T11:12:01.396Z,40.58
2016-11-27T11:13:11.008Z,40.49
2016-11-27T11:14:19.695Z,40.47
2016-11-27T11:15:29.798Z,40.95
2016-11-27T11:16:39.359Z,40.85
2016-11-27T11:17:48.470Z,41.33
2016-11-27T11:18:57.761Z,41.82
2016-11-27T11:20:06.734Z,41.89
2016-11-27T11:21:15.729Z,41.79
2016-11-27T11:22:25.048Z,42.18
2016-11-27T11:23:34.075Z,42.06
2016-11-27T11:24:43.076Z,42.16
2016-11-27T11:25:52.506Z,42.16
2016-11-27T11:27:01.569Z,42.44
2016-11-27T11:28:10.294Z,42.52
2016-11-27T11:29:19.657Z,42.9
2016-11-27T11:30:29.087Z,42.9
2016-11-27T11:31:38.455Z,42.9
2016-11-27T11:32:47.442Z,42.9
2016-11-27T11:33:56.136Z,42.9
2016-11-27T11:35:05.779Z,42.9
2016-11-27T11:36:14.451Z,42.5
2016-11-27T11:37:23.139Z,42.5
2016-11-27T11:38:32.434Z,42.69
2016-11-27T11:39:41.422Z,42.69
2016-11-27T11:40:50.732Z,42.5
2016-11-27T11:42:00.360Z,42.5
2016-11-27T11:43:09.063Z,42.6
2016-11-27T11:44:18.068Z,42.6
2016-11-27T11:45:26.761Z,42.69
2016-11-27T11:46:35.767Z,42.69
2016-11-27T11:47:45.064Z,42.69
2016-11-27T11:48:54.056Z,42.69
2016-11-27T11:50:03.039Z,42.69
2016-11-27T11:51:12.343Z,42.88
2016-11-27T11:52:21.035Z,42.57
2016-11-27T11:53:29.742Z,42.77
2016-11-27T11:54:39.091Z,42.77
2016-11-27T11:55:48.071Z,42.86
2016-11-27T11:56:56.793Z,42.77
2016-11-27T11:58:05.783Z,42.77
2016-11-27T11:59:14.472Z,43.05
2016-11-27T12:00:23.768Z,43.15
2016-11-27T12:01:32.773Z,43.05
2016-11-27T12:02:41.831Z,42.96
2016-11-27T12:03:50.811Z,42.67
2016-11-27T12:05:00.439Z,42.67
2016-11-27T12:06:09.133Z,42.29
2016-11-27T12:07:18.145Z,42.1
2016-11-27T12:08:27.134Z,41.52
2016-11-27T12:09:35.819Z,41.35
2016-11-27T12:10:44.504Z,40.96
2016-11-27T12:11:53.490Z,40.58
2016-11-27T12:13:02.185Z,40.41
2016-11-27T12:14:10.891Z,40.6
2016-11-27T12:15:19.886Z,40.12
2016-11-27T12:16:28.597Z,39.45
2016-11-27T12:17:37.700Z,39.54
2016-11-27T12:18:46.719Z,39.35
2016-11-27T12:19:55.427Z,38.89
2016-11-27T12:21:04.447Z,39.18
2016-11-27T12:22:13.457Z,38.79
2016-11-27T12:23:22.167Z,38.41
2016-11-27T12:24:30.861Z,38.24
2016-11-27T12:25:39.587Z,38.24
2016-11-27T12:26:48.926Z,37.95
2016-11-27T12:27:57.642Z,37.57
2016-11-27T12:29:06.687Z,37.85
2016-11-27T12:30:15.694Z,37.59
2016-11-27T12:31:24.687Z,37.57
2016-11-27T12:32:33.723Z,37.49
2016-11-27T12:33:43.031Z,37.39
2016-11-27T12:34:52.212Z,37.2
2016-11-27T12:36:00.908Z,37.1
2016-11-27T12:37:10.245Z,37.1
2016-11-27T12:38:19.231Z,36.82
2016-11-27T12:39:28.245Z,37.1
2016-11-27T12:40:37.090Z,36.83
2016-11-27T12:41:45.778Z,37.02
2016-11-27T12:42:54.503Z,36.83
2016-11-27T12:44:03.832Z,36.45
2016-11-27T12:45:13.177Z,36.74
2016-11-27T12:46:22.801Z,36.64
2016-11-27T12:47:31.795Z,36.74
2016-11-27T12:48:40.486Z,36.64
2016-11-27T12:49:49.494Z,36.45
2016-11-27T12:50:59.123Z,36.35
2016-11-27T12:52:07.835Z,36.35
2016-11-27T12:53:16.845Z,36.16
2016-11-27T12:54:26.163Z,35.87
2016-11-27T12:55:35.164Z,36.27
2016-11-27T12:56:43.872Z,36.25
2016-11-27T12:57:53.521Z,36.18
2016-11-27T12:59:02.230Z,35.99
2016-11-27T13:00:10.928Z,36.08
2016-11-27T13:01:19.946Z,36.18
2016-11-27T13:02:29.255Z,36.27
2016-11-27T13:03:38.268Z,36.08
2016-11-27T13:04:47.016Z,35.99
2016-11-27T13:05:55.751Z,35.7
2016-11-27T13:07:04.463Z,35.99
2016-11-27T13:08:13.459Z,35.7
2016-11-27T13:09:22.776Z,35.79
2016-11-27T13:10:31.786Z,35.7
2016-11-27T13:11:40.777Z,35.79
2016-11-27T13:12:49.473Z,35.7
2016-11-27T13:13:58.547Z,35.79
2016-11-27T13:15:07.863Z,35.79
2016-11-27T13:16:16.882Z,35.7
2016-11-27T13:17:25.579Z,35.7
2016-11-27T13:18:34.600Z,35.7
2016-11-27T13:19:43.604Z,35.5
2016-11-27T13:20:53.023Z,35.62
2016-11-27T13:22:01.746Z,35.7
2016-11-27T13:23:10.458Z,35.33
2016-11-27T13:24:19.488Z,35.5
2016-11-27T13:25:28.200Z,35.5
2016-11-27T13:26:37.035Z,35.52
2016-11-27T13:27:46.064Z,35.6
2016-11-27T13:28:55.060Z,35.5
2016-11-27T13:30:04.109Z,35.5
2016-11-27T13:31:13.726Z,35.42
2016-11-27T13:32:23.036Z,35.52
2016-11-27T13:33:32.355Z,35.41
2016-11-27T13:34:41.058Z,35.41
2016-11-27T13:35:50.080Z,35.62
2016-11-27T13:36:59.712Z,35.52
2016-11-27T13:38:09.378Z,35.24
2016-11-27T13:39:18.399Z,35.42
2016-11-27T13:40:27.080Z,35.52
2016-11-27T13:41:35.802Z,35.52
2016-11-27T13:42:44.509Z,35.62
2016-11-27T13:43:53.644Z,35.62
2016-11-27T13:45:02.655Z,35.62
2016-11-27T13:46:11.997Z,35.62
2016-11-27T13:47:21.299Z,35.81
2016-11-27T13:48:30.628Z,35.81
2016-11-27T13:49:39.978Z,36.19
2016-11-27T13:50:48.985Z,36.18
2016-11-27T13:51:58.326Z,36.18
2016-11-27T13:53:07.346Z,36.29
2016-11-27T13:54:16.673Z,36.1
2016-11-27T13:55:25.373Z,36.37
2016-11-27T13:56:34.686Z,36.27
2016-11-27T13:57:43.387Z,36.08
2016-11-27T13:58:52.401Z,36.08
2016-11-27T14:00:01.722Z,36.18
2016-11-27T14:01:10.785Z,36.37
2016-11-27T14:02:19.500Z,36.37
2016-11-27T14:03:28.496Z,35.99
2016-11-27T14:04:37.802Z,36.18
2016-11-27T14:05:47.475Z,36.37
2016-11-27T14:06:56.796Z,36.08
2016-11-27T14:08:05.827Z,36.27
2016-11-27T14:09:14.885Z,35.99
2016-11-27T14:10:23.909Z,35.89
2016-11-27T14:11:33.240Z,36.1
2016-11-27T14:12:42.555Z,36.1
2016-11-27T14:13:51.288Z,36.39
2016-11-27T14:15:00.596Z,36.19
2016-11-27T14:16:09.282Z,36.39
2016-11-27T14:17:18.282Z,36.19
2016-11-27T14:18:27.460Z,36.19
2016-11-27T14:19:36.173Z,36.29
2016-11-27T14:20:45.791Z,36.1
2016-11-27T14:21:55.423Z,36.1
2016-11-27T14:23:04.125Z,36.1
2016-11-27T14:24:12.961Z,36.1
2016-11-27T14:25:22.587Z,36.19
2016-11-27T14:26:31.319Z,36.1
2016-11-27T14:27:40.365Z,36
2016-11-27T14:28:49.390Z,36.19
2016-11-27T14:29:58.409Z,36
2016-11-27T14:31:08.026Z,36.29
2016-11-27T14:32:17.320Z,36.19
2016-11-27T14:33:26.632Z,36.1
2016-11-27T14:34:35.634Z,36.29
2016-11-27T14:35:45.090Z,36.1
2016-11-27T14:36:54.413Z,36.39
2016-11-27T14:38:03.425Z,36.39
2016-11-27T14:39:12.109Z,36.39
2016-11-27T14:40:21.140Z,36.29
2016-11-27T14:41:30.139Z,36.19
2016-11-27T14:42:38.877Z,36.39
2016-11-27T14:43:47.888Z,36.19
2016-11-27T14:44:56.579Z,36.1
2016-11-27T14:46:05.303Z,36.39
2016-11-27T14:47:15.382Z,36.19
2016-11-27T14:48:24.389Z,36.19
2016-11-27T14:49:33.380Z,36.19
2016-11-27T14:50:42.385Z,36.49
2016-11-27T14:51:51.073Z,36.29